createdAt,value
2018-03-20T00:00:13.320Z,10.82
2018-03-20T00:00:47.197Z,11.93
2018-03-20T00:01:21.455Z,11.20
2018-03-20T00:01:58.011Z,10.70
2018-03-20T00:02:31.873Z,11.23
2018-03-20T00:03:05.748Z,10.25
2018-03-20T00:03:39.708Z,10.80
2018-03-20T00:04:13.572Z,11.50
2018-03-20T00:04:47.432Z,10.50
2018-03-20T00:05:21.442Z,10.40
2018-03-20T00:05:55.305Z,10.95
2018-03-20T00:06:29.167Z,11.57
2018-03-20T00:07:03.065Z,10.40
2018-03-20T00:07:36.935Z,11.75
2018-03-20T00:08:10.804Z,11.10
2018-03-20T00:08:44.707Z,10.88
2018-03-20T00:09:18.659Z,11.00
2018-03-20T00:09:52.540Z,10.55
2018-03-20T00:10:26.534Z,10.70
2018-03-20T00:11:00.401Z,10.77
2018-03-20T00:11:34.530Z,11.10
2018-03-20T00:12:08.401Z,10.38
2018-03-20T00:12:42.275Z,11.45
2018-03-20T00:13:16.145Z,10.88
2018-03-20T00:13:50.224Z,12.10
2018-03-20T00:14:24.101Z,11.05
2018-03-20T00:14:58.080Z,10.55
2018-03-20T00:15:31.949Z,11.15
2018-03-20T00:16:05.826Z,10.77
2018-03-20T00:16:39.804Z,10.48
2018-03-20T00:17:13.682Z,11.10
2018-03-20T00:17:47.544Z,10.25
2018-03-20T00:18:21.406Z,10.88
2018-03-20T00:18:55.384Z,10.68
2018-03-20T00:19:29.246Z,10.85
2018-03-20T00:20:03.105Z,10.90
2018-03-20T00:20:36.970Z,11.57
2018-03-20T00:21:10.958Z,10.52
2018-03-20T00:21:44.956Z,11.25
2018-03-20T00:22:18.979Z,10.35
2018-03-20T00:22:52.841Z,11.35
2018-03-20T00:23:26.708Z,11.02
2018-03-20T00:24:00.782Z,10.93
2018-03-20T00:24:34.647Z,11.77
2018-03-20T00:25:08.505Z,11.18
2018-03-20T00:25:42.658Z,11.23
2018-03-20T00:26:16.637Z,10.90
2018-03-20T00:26:50.534Z,10.65
2018-03-20T00:27:24.429Z,11.27
2018-03-20T00:27:58.315Z,11.12
2018-03-20T00:28:32.205Z,9.88
2018-03-20T00:29:06.066Z,10.75
2018-03-20T00:29:39.937Z,10.02
2018-03-20T00:30:14.150Z,12.10
2018-03-20T00:30:48.015Z,10.48
2018-03-20T00:31:21.881Z,11.40
2018-03-20T00:31:55.757Z,11.38
2018-03-20T00:32:29.710Z,11.50
2018-03-20T00:33:03.579Z,10.40
2018-03-20T00:33:37.448Z,11.95
2018-03-20T00:34:11.306Z,11.63
2018-03-20T00:34:45.165Z,10.88
2018-03-20T00:35:19.028Z,10.40
2018-03-20T00:35:53.063Z,10.90
2018-03-20T00:36:26.928Z,11.95
2018-03-20T00:37:00.784Z,10.20
2018-03-20T00:37:34.650Z,11.48
2018-03-20T00:38:08.531Z,11.70
2018-03-20T00:38:42.537Z,10.90
2018-03-20T00:39:16.397Z,11.32
2018-03-20T00:39:50.445Z,9.60
2018-03-20T00:40:24.311Z,11.12
2018-03-20T00:40:58.331Z,11.38
2018-03-20T00:41:32.304Z,12.00
2018-03-20T00:42:06.173Z,11.25
2018-03-20T00:42:40.052Z,10.80
2018-03-20T00:43:13.998Z,11.45
2018-03-20T00:43:47.863Z,11.07
2018-03-20T00:44:21.806Z,10.77
2018-03-20T00:44:55.687Z,10.93
2018-03-20T00:45:29.688Z,11.23
2018-03-20T00:46:03.704Z,11.00
2018-03-20T00:46:37.578Z,12.15
2018-03-20T00:47:11.449Z,12.35
2018-03-20T00:47:45.330Z,14.65
2018-03-20T00:48:19.466Z,12.55
2018-03-20T00:48:53.562Z,10.48
2018-03-20T00:49:27.485Z,11.90
2018-03-20T00:50:01.388Z,11.32
2018-03-20T00:50:35.271Z,11.93
2018-03-20T00:51:09.136Z,11.57
2018-03-20T00:51:43.159Z,10.80
2018-03-20T00:52:17.023Z,12.18
2018-03-20T00:52:51.045Z,10.70
2018-03-20T00:53:24.902Z,11.45
2018-03-20T00:53:58.770Z,11.12
2018-03-20T00:54:33.657Z,12.05
2018-03-20T00:55:10.848Z,11.00
2018-03-20T00:55:48.287Z,11.05
2018-03-20T00:56:25.299Z,10.57
2018-03-20T00:57:01.948Z,10.75
2018-03-20T00:57:39.060Z,9.82
2018-03-20T00:58:16.007Z,11.15
2018-03-20T00:58:52.983Z,11.43
2018-03-20T00:59:29.928Z,10.63
2018-03-20T01:00:06.891Z,11.12
2018-03-20T01:00:40.767Z,11.35
2018-03-20T01:01:14.616Z,11.85
2018-03-20T01:01:48.567Z,11.10
2018-03-20T01:02:22.457Z,11.15
2018-03-20T01:02:56.332Z,11.07
2018-03-20T01:03:30.375Z,11.77
2018-03-20T01:04:04.269Z,11.77
2018-03-20T01:04:38.129Z,11.25
2018-03-20T01:05:11.991Z,11.18
2018-03-20T01:05:45.978Z,11.32
2018-03-20T01:06:19.841Z,11.65
2018-03-20T01:06:53.812Z,11.27
2018-03-20T01:07:27.811Z,11.32
2018-03-20T01:08:01.852Z,12.35
2018-03-20T01:08:35.749Z,11.77
2018-03-20T01:09:09.615Z,10.48
2018-03-20T01:09:43.603Z,11.07
2018-03-20T01:10:17.470Z,11.45
2018-03-20T01:10:51.385Z,11.18
2018-03-20T01:11:25.248Z,10.88
2018-03-20T01:11:59.117Z,12.15
2018-03-20T01:12:32.978Z,11.30
2018-03-20T01:13:06.977Z,11.00
2018-03-20T01:13:40.868Z,11.30
2018-03-20T01:14:14.877Z,10.50
2018-03-20T01:14:48.730Z,10.45
2018-03-20T01:15:22.860Z,11.80
2018-03-20T01:15:56.856Z,11.57
2018-03-20T01:16:30.852Z,11.63
2018-03-20T01:17:04.858Z,10.95
2018-03-20T01:17:38.744Z,11.57
2018-03-20T01:18:12.667Z,12.35
2018-03-20T01:18:46.549Z,11.05
2018-03-20T01:19:22.760Z,10.75
2018-03-20T01:19:59.470Z,10.75
2018-03-20T01:20:36.572Z,11.52
2018-03-20T01:21:13.498Z,11.15
2018-03-20T01:21:50.415Z,11.40
2018-03-20T01:22:27.663Z,11.55
2018-03-20T01:23:04.939Z,10.70
2018-03-20T01:23:41.976Z,12.02
2018-03-20T01:24:18.823Z,12.20
2018-03-20T01:24:55.949Z,11.55
2018-03-20T01:25:32.796Z,12.32
2018-03-20T01:26:09.691Z,12.63
2018-03-20T01:26:46.949Z,12.23
2018-03-20T01:27:23.756Z,11.82
2018-03-20T01:28:00.860Z,12.18
2018-03-20T01:28:36.869Z,12.27
2018-03-20T01:29:13.461Z,11.40
2018-03-20T01:29:47.464Z,11.65
2018-03-20T01:30:21.317Z,13.50
2018-03-20T01:30:55.333Z,11.50
2018-03-20T01:31:29.212Z,11.55
2018-03-20T01:32:03.229Z,10.93
2018-03-20T01:32:37.088Z,12.20
2018-03-20T01:33:10.957Z,10.93
2018-03-20T01:33:44.921Z,11.60
2018-03-20T01:34:18.909Z,11.12
2018-03-20T01:34:52.812Z,11.73
2018-03-20T01:35:26.675Z,11.77
2018-03-20T01:36:00.842Z,11.98
2018-03-20T01:36:34.723Z,11.70
2018-03-20T01:37:08.677Z,11.45
2018-03-20T01:37:42.696Z,11.43
2018-03-20T01:38:16.688Z,11.25
2018-03-20T01:38:50.537Z,12.00
2018-03-20T01:39:24.394Z,11.07
2018-03-20T01:39:58.270Z,11.12
2018-03-20T01:40:32.286Z,11.18
2018-03-20T01:41:06.157Z,11.60
2018-03-20T01:41:40.574Z,10.85
2018-03-20T01:42:14.676Z,11.75
2018-03-20T01:42:48.551Z,12.30
2018-03-20T01:43:22.482Z,11.45
2018-03-20T01:43:56.463Z,11.32
2018-03-20T01:44:30.457Z,12.65
2018-03-20T01:45:05.918Z,11.25
2018-03-20T01:45:39.889Z,11.57
2018-03-20T01:46:13.810Z,12.27
2018-03-20T01:46:48.365Z,11.07
2018-03-20T01:47:22.220Z,11.20
2018-03-20T01:47:56.131Z,11.07
2018-03-20T01:48:30.030Z,12.90
2018-03-20T01:49:03.933Z,11.57
2018-03-20T01:49:37.846Z,11.75
2018-03-20T01:50:11.736Z,10.98
2018-03-20T01:50:45.868Z,12.20
2018-03-20T01:51:19.733Z,11.18
2018-03-20T01:51:53.650Z,12.43
2018-03-20T01:52:27.551Z,10.95
2018-03-20T01:53:07.261Z,11.40
2018-03-20T01:53:41.163Z,12.37
2018-03-20T01:54:15.117Z,11.40
2018-03-20T01:54:48.990Z,11.35
2018-03-20T01:55:22.932Z,11.52
2018-03-20T01:55:56.807Z,11.30
2018-03-20T01:56:30.673Z,12.07
2018-03-20T01:57:04.785Z,12.10
2018-03-20T01:57:38.756Z,11.12
2018-03-20T01:58:12.855Z,11.73
2018-03-20T01:58:46.740Z,11.93
2018-03-20T01:59:20.612Z,11.68
2018-03-20T01:59:54.476Z,12.10
2018-03-20T02:00:28.399Z,11.45
2018-03-20T02:01:02.252Z,11.82
2018-03-20T02:01:36.125Z,10.98
2018-03-20T02:02:10.119Z,10.85
2018-03-20T02:02:43.985Z,11.25
2018-03-20T02:03:18.025Z,11.30
2018-03-20T02:03:51.913Z,10.93
2018-03-20T02:04:25.774Z,10.90
2018-03-20T02:04:59.645Z,11.55
2018-03-20T02:05:33.817Z,11.88
2018-03-20T02:06:07.702Z,12.27
2018-03-20T02:06:41.585Z,11.45
2018-03-20T02:07:15.451Z,11.52
2018-03-20T02:07:49.387Z,10.77
2018-03-20T02:08:23.274Z,11.00
2018-03-20T02:08:57.286Z,12.05
2018-03-20T02:09:31.148Z,10.25
2018-03-20T02:10:05.011Z,9.93
2018-03-20T02:10:39.069Z,10.35
2018-03-20T02:11:12.929Z,11.32
2018-03-20T02:11:46.788Z,10.90
2018-03-20T02:12:20.867Z,11.85
2018-03-20T02:12:54.850Z,11.85
2018-03-20T02:13:28.762Z,10.50
2018-03-20T02:14:02.641Z,11.35
2018-03-20T02:14:36.501Z,10.50
2018-03-20T02:15:10.362Z,10.65
2018-03-20T02:15:44.227Z,9.93
2018-03-20T02:16:18.134Z,10.95
2018-03-20T02:16:51.993Z,12.50
2018-03-20T02:17:26.116Z,10.55
2018-03-20T02:18:00.128Z,10.82
2018-03-20T02:18:34.122Z,11.25
2018-03-20T02:19:08.199Z,10.23
2018-03-20T02:19:42.068Z,10.02
2018-03-20T02:20:16.017Z,11.00
2018-03-20T02:20:50.102Z,9.95
2018-03-20T02:21:24.005Z,9.82
2018-03-20T02:21:57.900Z,11.35
2018-03-20T02:22:31.787Z,10.38
2018-03-20T02:23:05.646Z,10.30
2018-03-20T02:23:39.514Z,9.57
2018-03-20T02:24:13.582Z,9.85
2018-03-20T02:24:47.561Z,10.57
2018-03-20T02:25:21.426Z,9.85
2018-03-20T02:25:55.467Z,10.20
2018-03-20T02:26:29.475Z,9.20
2018-03-20T02:27:03.339Z,10.30
2018-03-20T02:27:37.281Z,10.60
2018-03-20T02:28:11.376Z,11.25
2018-03-20T02:28:45.248Z,10.57
2018-03-20T02:29:19.145Z,10.98
2018-03-20T02:29:53.017Z,9.82
2018-03-20T02:30:26.936Z,10.30
2018-03-20T02:31:00.932Z,9.20
2018-03-20T02:31:34.816Z,8.77
2018-03-20T02:32:08.674Z,9.07
2018-03-20T02:32:42.723Z,9.45
2018-03-20T02:33:16.582Z,10.80
2018-03-20T02:33:50.444Z,9.75
2018-03-20T02:34:24.306Z,10.77
2018-03-20T02:34:58.208Z,9.55
2018-03-20T02:35:32.208Z,10.05
2018-03-20T02:36:06.115Z,11.05
2018-03-20T02:36:39.974Z,9.10
2018-03-20T02:37:14.196Z,10.80
2018-03-20T02:37:48.062Z,10.38
2018-03-20T02:38:21.914Z,9.98
2018-03-20T02:38:55.773Z,9.32
2018-03-20T02:39:29.619Z,9.60
2018-03-20T02:40:03.567Z,9.73
2018-03-20T02:40:37.423Z,10.75
2018-03-20T02:41:11.563Z,10.07
2018-03-20T02:41:45.493Z,10.60
2018-03-20T02:42:19.364Z,10.23
2018-03-20T02:42:53.225Z,10.27
2018-03-20T02:43:27.093Z,9.80
2018-03-20T02:44:01.048Z,10.32
2018-03-20T02:44:34.903Z,9.40
2018-03-20T02:45:08.763Z,9.38
2018-03-20T02:45:42.635Z,9.45
2018-03-20T02:46:20.283Z,9.40
2018-03-20T02:46:54.145Z,9.00
2018-03-20T02:47:28.202Z,9.35
2018-03-20T02:48:02.205Z,10.65
2018-03-20T02:48:36.065Z,9.70
2018-03-20T02:49:09.956Z,9.88
2018-03-20T02:49:43.807Z,10.63
2018-03-20T02:50:17.678Z,10.15
2018-03-20T02:50:51.534Z,10.10
2018-03-20T02:51:25.501Z,10.70
2018-03-20T02:51:59.599Z,10.85
2018-03-20T02:52:33.565Z,10.95
2018-03-20T02:53:07.563Z,9.60
2018-03-20T02:53:41.565Z,9.88
2018-03-20T02:54:15.758Z,9.43
2018-03-20T02:54:49.643Z,11.02
2018-03-20T02:55:23.506Z,10.07
2018-03-20T02:55:57.365Z,10.63
2018-03-20T02:56:31.250Z,9.50
2018-03-20T02:57:05.136Z,9.85
2018-03-20T02:57:39.142Z,9.90
2018-03-20T02:58:13.005Z,10.05
2018-03-20T02:58:46.886Z,9.20
2018-03-20T02:59:20.775Z,9.57
2018-03-20T02:59:54.643Z,9.02
2018-03-20T03:00:28.509Z,9.20
2018-03-20T03:01:02.610Z,9.00
2018-03-20T03:01:36.505Z,8.93
2018-03-20T03:02:10.374Z,10.07
2018-03-20T03:02:44.248Z,10.02
2018-03-20T03:03:18.291Z,9.75
2018-03-20T03:03:52.158Z,9.00
2018-03-20T03:04:26.181Z,9.45
2018-03-20T03:05:00.053Z,9.98
2018-03-20T03:05:33.914Z,8.27
2018-03-20T03:06:08.087Z,9.13
2018-03-20T03:06:41.988Z,9.10
2018-03-20T03:07:15.968Z,8.68
2018-03-20T03:07:49.835Z,8.98
2018-03-20T03:08:23.709Z,10.00
2018-03-20T03:08:57.623Z,8.48
2018-03-20T03:09:31.495Z,9.45
2018-03-20T03:10:05.353Z,9.48
2018-03-20T03:10:39.238Z,9.57
2018-03-20T03:11:13.235Z,9.10
2018-03-20T03:11:47.114Z,10.75
2018-03-20T03:12:20.994Z,11.30
2018-03-20T03:12:55.134Z,9.10
2018-03-20T03:13:29.000Z,8.95
2018-03-20T03:14:02.856Z,10.00
2018-03-20T03:14:36.717Z,9.88
2018-03-20T03:15:10.595Z,10.15
2018-03-20T03:15:44.909Z,9.77
2018-03-20T03:16:18.768Z,11.05
2018-03-20T03:16:52.660Z,9.82
2018-03-20T03:17:26.538Z,9.98
2018-03-20T03:18:00.604Z,9.93
2018-03-20T03:18:34.469Z,8.80
2018-03-20T03:19:08.555Z,9.63
2018-03-20T03:19:42.594Z,7.62
2018-03-20T03:20:16.453Z,9.55
2018-03-20T03:20:50.582Z,8.82
2018-03-20T03:21:24.448Z,8.55
2018-03-20T03:21:58.377Z,9.77
2018-03-20T03:22:32.270Z,9.40
2018-03-20T03:23:06.310Z,9.85
2018-03-20T03:23:40.464Z,9.63
2018-03-20T03:24:14.514Z,9.07
2018-03-20T03:24:48.564Z,9.57
2018-03-20T03:25:22.427Z,9.23
2018-03-20T03:25:56.384Z,9.98
2018-03-20T03:26:30.233Z,9.40
2018-03-20T03:27:04.106Z,9.18
2018-03-20T03:27:38.586Z,8.73
2018-03-20T03:28:12.448Z,9.18
2018-03-20T03:28:46.311Z,9.43
2018-03-20T03:29:20.170Z,9.00
2018-03-20T03:29:54.035Z,9.20
2018-03-20T03:30:27.899Z,8.68
2018-03-20T03:31:01.757Z,8.18
2018-03-20T03:31:35.622Z,9.15
2018-03-20T03:32:09.509Z,9.55
2018-03-20T03:32:43.392Z,8.38
2018-03-20T03:33:17.295Z,8.32
2018-03-20T03:33:51.300Z,9.52
2018-03-20T03:34:25.170Z,9.23
2018-03-20T03:34:59.041Z,10.00
2018-03-20T03:35:33.095Z,8.85
2018-03-20T03:36:06.948Z,8.88
2018-03-20T03:36:41.000Z,10.05
2018-03-20T03:37:14.986Z,9.52
2018-03-20T03:37:48.883Z,9.07
2018-03-20T03:38:22.880Z,8.55
2018-03-20T03:38:56.773Z,9.65
2018-03-20T03:39:30.630Z,9.95
2018-03-20T03:40:04.493Z,9.43
2018-03-20T03:40:38.455Z,8.32
2018-03-20T03:41:12.320Z,8.15
2018-03-20T03:41:46.349Z,10.35
2018-03-20T03:42:20.216Z,9.63
2018-03-20T03:42:54.246Z,9.50
2018-03-20T03:43:28.098Z,9.85
2018-03-20T03:44:02.138Z,8.57
2018-03-20T03:44:35.984Z,9.55
2018-03-20T03:45:10.931Z,9.30
2018-03-20T03:45:44.775Z,9.70
2018-03-20T03:46:18.769Z,9.20
2018-03-20T03:46:52.836Z,8.90
2018-03-20T03:47:26.707Z,8.43
2018-03-20T03:48:00.563Z,8.43
2018-03-20T03:48:34.639Z,9.25
2018-03-20T03:49:08.503Z,8.00
2018-03-20T03:49:42.363Z,8.60
2018-03-20T03:50:16.722Z,9.45
2018-03-20T03:50:50.581Z,8.77
2018-03-20T03:51:24.519Z,8.15
2018-03-20T03:51:58.396Z,9.70
2018-03-20T03:52:32.434Z,8.63
2018-03-20T03:53:06.403Z,9.60
2018-03-20T03:53:40.266Z,8.70
2018-03-20T03:54:14.133Z,9.50
2018-03-20T03:54:48.198Z,9.68
2018-03-20T03:55:22.060Z,8.55
2018-03-20T03:55:55.925Z,9.43
2018-03-20T03:56:29.875Z,8.38
2018-03-20T03:57:03.738Z,9.52
2018-03-20T03:57:37.633Z,9.27
2018-03-20T03:58:11.494Z,8.50
2018-03-20T03:58:45.408Z,8.10
2018-03-20T03:59:19.373Z,9.10
2018-03-20T03:59:53.264Z,10.13
2018-03-20T04:00:27.143Z,9.30
2018-03-20T04:01:01.396Z,8.95
2018-03-20T04:01:35.343Z,8.77
2018-03-20T04:02:09.237Z,9.15
2018-03-20T04:02:43.153Z,9.15
2018-03-20T04:03:17.012Z,8.75
2018-03-20T04:03:51.131Z,9.13
2018-03-20T04:04:25.138Z,8.95
2018-03-20T04:04:59.132Z,8.80
2018-03-20T04:05:33.011Z,9.60
2018-03-20T04:06:06.878Z,9.15
2018-03-20T04:06:40.921Z,8.45
2018-03-20T04:07:14.805Z,8.27
2018-03-20T04:07:48.702Z,10.05
2018-03-20T04:08:22.593Z,8.50
2018-03-20T04:08:56.446Z,8.88
2018-03-20T04:09:30.501Z,10.70
2018-03-20T04:10:05.266Z,9.23
2018-03-20T04:10:39.137Z,9.25
2018-03-20T04:11:13.208Z,9.52
2018-03-20T04:11:47.205Z,10.57
2018-03-20T04:12:21.202Z,9.40
2018-03-20T04:12:55.082Z,9.82
2018-03-20T04:13:29.201Z,9.02
2018-03-20T04:14:03.053Z,9.60
2018-03-20T04:14:37.116Z,8.68
2018-03-20T04:15:10.966Z,8.55
2018-03-20T04:15:44.812Z,10.88
2018-03-20T04:16:18.700Z,9.48
2018-03-20T04:16:52.757Z,9.27
2018-03-20T04:17:26.631Z,8.10
2018-03-20T04:18:00.665Z,9.35
2018-03-20T04:18:34.878Z,9.48
2018-03-20T04:19:08.714Z,9.80
2018-03-20T04:19:42.581Z,9.30
2018-03-20T04:20:16.448Z,9.25
2018-03-20T04:20:50.354Z,9.82
2018-03-20T04:21:24.210Z,8.35
2018-03-20T04:21:58.077Z,9.20
2018-03-20T04:22:31.958Z,9.73
2018-03-20T04:23:06.233Z,9.98
2018-03-20T04:23:40.250Z,9.02
2018-03-20T04:24:14.093Z,9.13
2018-03-20T04:24:48.228Z,8.30
2018-03-20T04:25:22.223Z,7.82
2018-03-20T04:25:56.224Z,8.90
2018-03-20T04:26:30.184Z,8.50
2018-03-20T04:27:04.043Z,9.35
2018-03-20T04:27:37.920Z,10.18
2018-03-20T04:28:11.908Z,9.77
2018-03-20T04:28:46.123Z,10.40
2018-03-20T04:29:19.998Z,9.73
2018-03-20T04:29:53.926Z,8.25
2018-03-20T04:30:27.814Z,10.35
2018-03-20T04:31:01.672Z,9.68
2018-03-20T04:31:35.577Z,9.80
2018-03-20T04:32:09.464Z,10.13
2018-03-20T04:32:43.578Z,9.57
2018-03-20T04:33:17.495Z,7.93
2018-03-20T04:33:51.370Z,10.13
2018-03-20T04:34:25.358Z,8.45
2018-03-20T04:34:59.237Z,8.63
2018-03-20T04:35:33.112Z,8.90
2018-03-20T04:36:06.981Z,8.98
2018-03-20T04:36:40.841Z,8.38
2018-03-20T04:37:14.707Z,8.80
2018-03-20T04:37:48.852Z,9.98
2018-03-20T04:38:22.721Z,8.75
2018-03-20T04:38:56.621Z,9.00
2018-03-20T04:39:30.841Z,8.85
2018-03-20T04:40:04.712Z,8.88
2018-03-20T04:40:38.629Z,10.25
2018-03-20T04:41:12.630Z,9.82
2018-03-20T04:41:46.531Z,10.05
2018-03-20T04:42:20.390Z,9.25
2018-03-20T04:42:54.441Z,9.82
2018-03-20T04:43:28.313Z,9.07
2018-03-20T04:44:02.186Z,10.43
2018-03-20T04:44:36.200Z,9.02
2018-03-20T04:45:10.304Z,9.50
2018-03-20T04:45:44.157Z,7.85
2018-03-20T04:46:18.091Z,8.85
2018-03-20T04:46:51.948Z,8.15
2018-03-20T04:47:25.980Z,8.07
2018-03-20T04:47:59.845Z,8.00
2018-03-20T04:48:33.892Z,8.40
2018-03-20T04:49:07.874Z,8.70
2018-03-20T04:49:41.870Z,8.63
2018-03-20T04:50:15.978Z,8.80
2018-03-20T04:50:49.846Z,9.95
2018-03-20T04:51:23.858Z,8.27
2018-03-20T04:51:57.710Z,8.60
2018-03-20T04:52:31.668Z,8.88
2018-03-20T04:53:05.556Z,9.15
2018-03-20T04:53:39.443Z,10.25
2018-03-20T04:54:13.362Z,8.65
2018-03-20T04:54:47.211Z,9.00
2018-03-20T04:55:21.082Z,8.15
2018-03-20T04:55:55.253Z,8.90
2018-03-20T04:56:29.117Z,10.02
2018-03-20T04:57:02.995Z,9.70
2018-03-20T04:57:36.918Z,8.60
2018-03-20T04:58:10.813Z,8.45
2018-03-20T04:58:44.718Z,8.98
2018-03-20T04:59:18.586Z,8.93
2018-03-20T04:59:52.434Z,8.35
2018-03-20T05:00:26.446Z,9.63
2018-03-20T05:01:00.493Z,7.53
2018-03-20T05:01:34.505Z,10.18
2018-03-20T05:02:08.357Z,9.23
2018-03-20T05:02:42.208Z,9.35
2018-03-20T05:03:16.280Z,8.68
2018-03-20T05:03:50.171Z,9.25
2018-03-20T05:04:24.078Z,8.05
2018-03-20T05:04:57.932Z,9.25
2018-03-20T05:05:31.809Z,8.25
2018-03-20T05:06:06.166Z,8.82
2018-03-20T05:06:40.046Z,10.40
2018-03-20T05:07:13.960Z,9.90
2018-03-20T05:07:47.862Z,8.52
2018-03-20T05:08:21.764Z,8.40
2018-03-20T05:08:55.662Z,8.52
2018-03-20T05:09:29.546Z,9.13
2018-03-20T05:10:03.413Z,10.25
2018-03-20T05:10:37.532Z,9.85
2018-03-20T05:11:11.414Z,10.02
2018-03-20T05:11:45.284Z,9.43
2018-03-20T05:12:19.365Z,9.00
2018-03-20T05:12:53.222Z,9.30
2018-03-20T05:13:27.093Z,8.95
2018-03-20T05:14:00.978Z,9.35
2018-03-20T05:14:34.839Z,10.13
2018-03-20T05:15:08.734Z,8.50
2018-03-20T05:15:42.669Z,10.52
2018-03-20T05:16:16.525Z,9.63
2018-03-20T05:16:50.387Z,7.22
2018-03-20T05:17:24.295Z,8.55
2018-03-20T05:17:58.165Z,8.65
2018-03-20T05:18:32.067Z,9.05
2018-03-20T05:19:24.696Z,8.57
2018-03-20T05:20:04.293Z,8.27
2018-03-20T05:21:47.414Z,8.27
2018-03-20T05:22:36.351Z,8.25
2018-03-20T05:23:15.929Z,8.07
2018-03-20T05:23:49.830Z,8.80
2018-03-20T05:24:23.781Z,11.82
2018-03-20T05:24:57.826Z,10.63
2018-03-20T05:25:31.703Z,9.18
2018-03-20T05:26:05.585Z,9.90
2018-03-20T05:26:39.529Z,9.60
2018-03-20T05:27:13.394Z,9.15
2018-03-20T05:27:47.519Z,10.35
2018-03-20T05:28:21.508Z,9.20
2018-03-20T05:28:55.428Z,9.45
2018-03-20T05:29:29.434Z,10.20
2018-03-20T05:30:04.113Z,10.60
2018-03-20T05:30:38.053Z,9.73
2018-03-20T05:31:11.943Z,9.13
2018-03-20T05:31:45.836Z,9.70
2018-03-20T05:32:19.685Z,9.85
2018-03-20T05:32:53.560Z,9.68
2018-03-20T05:33:27.462Z,8.27
2018-03-20T05:34:01.364Z,9.77
2018-03-20T05:34:35.429Z,9.90
2018-03-20T05:35:09.317Z,10.25
2018-03-20T05:35:43.198Z,10.45
2018-03-20T05:36:17.083Z,9.23
2018-03-20T05:36:50.956Z,11.00
2018-03-20T05:37:25.055Z,10.32
2018-03-20T05:37:58.944Z,9.55
2018-03-20T05:38:32.877Z,9.30
2018-03-20T05:39:06.749Z,8.60
2018-03-20T05:39:40.637Z,9.38
2018-03-20T05:40:14.502Z,9.35
2018-03-20T05:40:48.382Z,9.35
2018-03-20T05:41:22.275Z,8.20
2018-03-20T05:41:56.223Z,8.00
2018-03-20T05:42:30.090Z,9.57
2018-03-20T05:43:04.107Z,9.10
2018-03-20T05:43:38.012Z,8.60
2018-03-20T05:44:11.901Z,8.85
2018-03-20T05:44:45.894Z,9.25
2018-03-20T05:45:19.757Z,9.07
2018-03-20T05:45:53.643Z,8.38
2018-03-20T05:46:33.360Z,8.35
2018-03-20T05:47:26.565Z,8.90
2018-03-20T05:48:06.494Z,8.93
2018-03-20T05:48:41.162Z,8.88
2018-03-20T05:49:21.061Z,9.35
2018-03-20T05:50:09.730Z,7.90
2018-03-20T05:50:49.574Z,8.48
2018-03-20T05:51:29.242Z,8.25
2018-03-20T05:52:03.858Z,10.68
2018-03-20T05:52:37.746Z,11.52
2018-03-20T05:53:11.628Z,16.65
2018-03-20T05:53:46.021Z,16.55
2018-03-20T05:54:19.910Z,20.98
2018-03-20T05:54:53.795Z,19.00
2018-03-20T05:55:27.678Z,18.40
2018-03-20T05:56:01.552Z,24.08
2018-03-20T05:56:35.446Z,19.62
2018-03-20T05:57:09.342Z,17.35
2018-03-20T05:57:43.218Z,16.35
2018-03-20T05:58:17.099Z,13.85
2018-03-20T05:58:50.976Z,14.60
2018-03-20T05:59:25.131Z,15.00
2018-03-20T05:59:59.013Z,15.30
2018-03-20T06:00:32.934Z,16.12
2018-03-20T06:01:06.832Z,25.80
2018-03-20T06:01:40.821Z,27.55
2018-03-20T06:02:14.697Z,27.05
2018-03-20T06:02:48.603Z,29.60
2018-03-20T06:03:22.510Z,20.70
2018-03-20T06:03:56.699Z,30.02
2018-03-20T06:04:30.593Z,27.67
2018-03-20T06:05:04.473Z,25.15
2018-03-20T06:05:38.371Z,15.88
2018-03-20T06:06:12.259Z,15.95
2018-03-20T06:06:46.182Z,22.02
2018-03-20T06:07:20.051Z,21.10
2018-03-20T06:07:54.103Z,21.25
2018-03-20T06:08:27.994Z,27.02
2018-03-20T06:09:02.061Z,19.23
2018-03-20T06:09:35.925Z,20.27
2018-03-20T06:10:10.069Z,18.65
2018-03-20T06:10:43.985Z,15.60
2018-03-20T06:11:17.883Z,12.80
2018-03-20T06:11:51.762Z,12.25
2018-03-20T06:12:25.748Z,18.65
2018-03-20T06:12:59.620Z,21.25
2018-03-20T06:13:33.716Z,19.17
2018-03-20T06:14:07.614Z,17.87
2018-03-20T06:14:41.516Z,19.12
2018-03-20T06:15:15.400Z,22.83
2018-03-20T06:15:49.449Z,19.48
2018-03-20T06:16:23.362Z,14.82
2018-03-20T06:16:57.237Z,17.02
2018-03-20T06:17:31.456Z,11.68
2018-03-20T06:18:05.633Z,10.45
2018-03-20T06:18:39.512Z,8.50
2018-03-20T06:19:13.553Z,10.10
2018-03-20T06:19:47.448Z,8.25
2018-03-20T06:20:21.606Z,10.10
2018-03-20T06:20:55.656Z,9.90
2018-03-20T06:21:29.821Z,9.15
2018-03-20T06:22:03.803Z,13.75
2018-03-20T06:22:37.677Z,13.02
2018-03-20T06:23:11.574Z,11.65
2018-03-20T06:23:45.592Z,11.40
2018-03-20T06:24:19.506Z,10.90
2018-03-20T06:24:53.417Z,14.80
2018-03-20T06:25:27.500Z,11.95
2018-03-20T06:26:01.413Z,18.77
2018-03-20T06:26:35.308Z,16.40
2018-03-20T06:27:09.273Z,14.93
2018-03-20T06:27:43.293Z,13.80
2018-03-20T06:28:17.231Z,10.55
2018-03-20T06:28:51.085Z,14.57
2018-03-20T06:29:24.988Z,11.02
2018-03-20T06:29:59.167Z,11.30
2018-03-20T06:30:33.304Z,12.77
2018-03-20T06:31:07.183Z,24.92
2018-03-20T06:31:41.068Z,17.95
2018-03-20T06:32:14.963Z,14.82
2018-03-20T06:32:48.842Z,12.10
2018-03-20T06:33:22.728Z,12.50
2018-03-20T06:33:56.738Z,15.55
2018-03-20T06:34:30.693Z,13.25
2018-03-20T06:35:04.533Z,15.73
2018-03-20T06:35:38.420Z,13.90
2018-03-20T06:36:12.374Z,11.38
2018-03-20T06:36:46.297Z,10.43
2018-03-20T06:37:20.309Z,11.77
2018-03-20T06:37:54.194Z,20.75
2018-03-20T06:38:28.084Z,11.35
2018-03-20T06:39:01.975Z,11.90
2018-03-20T06:39:35.852Z,15.38
2018-03-20T06:40:09.787Z,12.90
2018-03-20T06:40:43.708Z,11.63
2018-03-20T06:41:17.624Z,10.68
2018-03-20T06:41:51.496Z,9.85
2018-03-20T06:42:25.387Z,9.40
2018-03-20T06:42:59.290Z,10.48
2018-03-20T06:43:33.183Z,10.48
2018-03-20T06:44:07.061Z,10.90
2018-03-20T06:44:40.946Z,12.30
2018-03-20T06:45:14.847Z,11.07
2018-03-20T06:45:48.748Z,10.05
2018-03-20T06:46:22.847Z,10.45
2018-03-20T06:46:56.808Z,10.73
2018-03-20T06:47:30.735Z,10.52
2018-03-20T06:48:04.833Z,9.85
2018-03-20T06:48:38.892Z,11.40
2018-03-20T06:49:12.749Z,11.48
2018-03-20T06:49:46.619Z,10.70
2018-03-20T06:50:20.468Z,10.65
2018-03-20T06:50:54.352Z,11.05
2018-03-20T06:51:28.268Z,9.85
2018-03-20T06:52:02.885Z,11.90
2018-03-20T06:52:37.019Z,10.60
2018-03-20T06:53:10.908Z,10.75
2018-03-20T06:53:44.788Z,10.00
2018-03-20T06:54:18.652Z,10.48
2018-03-20T06:54:52.520Z,10.65
2018-03-20T06:55:26.477Z,14.43
2018-03-20T06:56:00.369Z,12.02
2018-03-20T06:56:34.796Z,11.57
2018-03-20T06:57:08.723Z,10.73
2018-03-20T06:57:42.643Z,10.73
2018-03-20T06:58:16.568Z,11.27
2018-03-20T06:58:50.459Z,11.15
2018-03-20T06:59:24.359Z,10.80
2018-03-20T06:59:58.259Z,10.40
2018-03-20T07:00:32.230Z,10.88
2018-03-20T07:01:06.367Z,14.80
2018-03-20T07:01:40.282Z,11.02
2018-03-20T07:02:14.165Z,12.30
2018-03-20T07:02:48.043Z,14.00
2018-03-20T07:03:21.936Z,17.40
2018-03-20T07:03:55.947Z,15.68
2018-03-20T07:04:29.862Z,12.90
2018-03-20T07:05:03.850Z,16.67
2018-03-20T07:05:38.235Z,14.85
2018-03-20T07:06:12.110Z,10.57
2018-03-20T07:06:46.021Z,13.88
2018-03-20T07:07:19.889Z,11.27
2018-03-20T07:07:53.791Z,16.73
2018-03-20T07:08:27.682Z,16.30
2018-03-20T07:09:01.557Z,12.13
2018-03-20T07:09:35.441Z,11.70
2018-03-20T07:10:09.519Z,12.82
2018-03-20T07:10:43.390Z,14.02
2018-03-20T07:11:17.286Z,16.02
2018-03-20T07:11:51.197Z,21.77
2018-03-20T07:12:25.067Z,14.18
2018-03-20T07:12:58.946Z,13.35
2018-03-20T07:13:32.870Z,15.07
2018-03-20T07:14:06.775Z,13.32
2018-03-20T07:14:40.676Z,12.90
2018-03-20T07:15:14.553Z,13.68
2018-03-20T07:15:48.499Z,13.35
2018-03-20T07:16:22.405Z,12.45
2018-03-20T07:16:56.307Z,12.57
2018-03-20T07:17:30.373Z,11.57
2018-03-20T07:18:04.270Z,11.75
2018-03-20T07:18:38.177Z,12.37
2018-03-20T07:19:12.156Z,10.73
2018-03-20T07:19:46.042Z,10.00
2018-03-20T07:20:19.909Z,9.35
2018-03-20T07:20:53.783Z,10.55
2018-03-20T07:21:27.831Z,10.63
2018-03-20T07:22:01.725Z,10.43
2018-03-20T07:22:35.578Z,10.23
2018-03-20T07:23:09.453Z,10.38
2018-03-20T07:23:43.326Z,10.68
2018-03-20T07:24:17.185Z,10.55
2018-03-20T07:24:51.069Z,10.35
2018-03-20T07:25:24.959Z,10.60
2018-03-20T07:25:58.897Z,10.18
2018-03-20T07:26:32.821Z,11.02
2018-03-20T07:27:06.731Z,9.40